Time;durP1;ratioP1;P1;durP2;ratioP2;P2;SDS_P1;SDS_P2;PMS_P1;PMS_P2;Temp;Humidity;BMP_temperature;BMP_pressure;BME280_temperature;BME280_humidity;BME280_pressure;Samples;Min_cycle;Max_cycle;Signal;HPM_P1;HPM_P2
2023/04/27 00:04:41;;;;;;;2.13;1.00;;;6.20;70.90;;;4.39;59.01;100288.63;10399224;28;96623;-89
2023/04/27 00:09:45;;;;;;;2.87;1.80;;;6.10;71.30;;;4.25;60.15;100292.38;10384363;28;97119;-89
2023/04/27 00:14:48;;;;;;;3.10;1.20;;;6.00;72.30;;;4.13;60.55;100297.78;10400628;28;96761;-88
2023/04/27 00:19:52;;;;;;;2.23;1.20;;;5.80;72.00;;;4.06;61.04;100289.56;10399716;28;96528;-88
2023/04/27 00:24:55;;;;;;;3.07;1.20;;;5.80;72.50;;;4.03;61.41;100293.28;10398799;28;96577;-88
2023/04/27 00:29:58;;;;;;;6.47;1.70;;;5.70;72.40;;;3.94;62.59;100298.44;10413855;28;96801;-88
2023/04/27 00:35:01;;;;;;;3.60;1.60;;;5.70;72.90;;;3.91;62.64;100290.81;10400466;28;96570;-88
2023/04/27 00:40:08;;;;;;;3.60;2.00;;;5.60;73.20;;;3.80;63.23;100293.47;10376034;28;98044;-90
2023/04/27 00:45:12;;;;;;;3.10;1.93;;;5.50;74.00;;;3.64;64.07;100291.22;10398068;28;98583;-88
2023/04/27 00:50:17;;;;;;;4.73;1.50;;;5.40;74.70;;;3.45;64.67;100291.81;10385957;28;96626;-86
2023/04/27 00:55:22;;;;;;;7.07;2.03;;;5.20;75.20;;;3.33;64.93;100288.34;10403830;28;97361;-87
2023/04/27 01:00:25;;;;;;;6.43;2.17;;;5.00;75.80;;;3.26;65.26;100291.59;10403482;28;97280;-88
2023/04/27 01:05:29;;;;;;;4.27;1.70;;;4.90;76.50;;;3.19;66.13;100291.22;10399852;28;96543;-83
2023/04/27 01:10:36;;;;;;;3.77;1.73;;;4.90;76.30;;;3.14;66.30;100293.38;10390650;27;96633;-87
2023/04/27 01:15:40;;;;;;;6.63;2.10;;;4.80;76.60;;;3.09;66.45;100301.59;10376528;28;96810;-87
2023/04/27 01:20:43;;;;;;;4.40;2.10;;;4.80;77.20;;;3.01;66.81;100292.66;10396238;28;96467;-88
2023/04/27 01:25:46;;;;;;;6.13;2.20;;;4.70;77.40;;;2.92;67.61;100296.78;10405221;27;96717;-87
2023/04/27 01:30:50;;;;;;;4.57;2.10;;;4.60;78.50;;;2.83;67.57;100300.97;10419741;27;96483;-88
2023/04/27 01:35:53;;;;;;;4.77;2.30;;;4.50;78.10;;;2.80;67.57;100302.97;10406050;28;98345;-85
2023/04/27 01:41:00;;;;;;;2.57;1.57;;;4.50;78.20;;;2.80;67.54;100314.28;10393676;28;96628;-85
2023/04/27 01:46:06;;;;;;;4.27;1.90;;;4.50;78.80;;;2.78;67.75;100310.13;10387989;28;96943;-86
2023/04/27 01:51:10;;;;;;;3.30;1.77;;;4.50;78.90;;;2.78;67.96;100318.84;10395525;28;96581;-86
2023/04/27 01:56:13;;;;;;;4.87;1.90;;;4.40;79.20;;;2.73;67.80;100313.09;10406427;28;96557;-86
2023/04/27 02:01:16;;;;;;;4.67;2.40;;;4.40;79.20;;;2.65;67.86;100312.84;10425733;28;96743;-85
2023/04/27 02:06:19;;;;;;;5.13;2.43;;;4.40;79.20;;;2.59;68.39;100315.91;10376255;28;96522;-85
2023/04/27 02:11:22;;;;;;;4.70;2.03;;;4.30;79.60;;;2.52;68.01;100319.91;10390574;28;96702;-87
2023/04/27 02:16:25;;;;;;;3.20;1.63;;;4.30;79.40;;;2.48;68.09;100334.22;10393543;28;96721;-87
2023/04/27 02:21:28;;;;;;;3.73;1.83;;;4.20;79.50;;;2.44;69.21;100330.16;10407025;28;96812;-88
2023/04/27 02:26:31;;;;;;;5.40;2.10;;;4.20;80.10;;;2.40;69.32;100338.25;10390681;28;96577;-88
2023/04/27 02:31:34;;;;;;;4.50;2.40;;;4.10;80.50;;;2.32;69.58;100337.97;10409397;28;98172;-87
2023/04/27 02:36:37;;;;;;;4.17;2.03;;;4.10;80.50;;;2.22;70.43;100344.84;10410419;28;98363;-87
2023/04/27 02:41:40;;;;;;;4.17;2.80;;;4.00;81.70;;;2.17;70.52;100348.75;10391709;28;97036;-87
2023/04/27 02:46:43;;;;;;;5.90;2.93;;;3.90;81.70;;;2.11;71.07;100350.03;10404118;28;96552;-87
2023/04/27 02:51:47;;;;;;;4.53;2.90;;;3.90;81.90;;;2.00;71.35;100348.16;10384246;27;97509;-86
2023/04/27 02:56:50;;;;;;;5.97;2.70;;;3.80;82.10;;;1.95;71.21;100362.53;10398991;28;98815;-86
2023/04/27 03:01:53;;;;;;;5.67;3.00;;;3.70;82.80;;;1.80;72.21;100356.56;10385608;28;96687;-87
2023/04/27 03:06:56;;;;;;;3.87;2.30;;;3.60;83.50;;;1.68;72.72;100355.69;10386111;28;96575;-86
2023/04/27 03:11:59;;;;;;;6.23;2.10;;;3.50;84.40;;;1.64;73.07;100356.84;10395995;28;97706;-84
2023/04/27 03:17:02;;;;;;;4.07;2.27;;;3.40;84.80;;;1.56;73.02;100354.75;10385359;28;96576;-86
2023/04/27 03:22:05;;;;;;;5.10;2.17;;;3.30;85.20;;;1.52;73.05;100368.16;10385071;28;96640;-86
2023/04/27 03:27:08;;;;;;;4.70;2.20;;;3.20;85.50;;;1.49;73.61;100373.59;10413759;28;96584;-86
2023/04/27 03:32:11;;;;;;;4.37;2.30;;;3.20;85.70;;;1.47;73.66;100380.72;10401945;28;96691;-86
2023/04/27 03:37:15;;;;;;;5.50;2.40;;;3.20;86.50;;;1.48;73.79;100393.72;10379904;28;96875;-85
2023/04/27 03:42:18;;;;;;;5.37;2.53;;;3.20;87.00;;;1.46;73.53;100394.78;10416084;28;96517;-86
2023/04/27 03:47:21;;;;;;;11.63;4.40;;;3.10;87.30;;;1.42;74.17;100396.75;10400560;28;98369;-86
2023/04/27 03:52:25;;;;;;;8.90;3.00;;;3.10;87.50;;;1.48;74.25;100396.31;10384641;28;96542;-84
2023/04/27 03:57:28;;;;;;;5.87;2.40;;;3.20;87.50;;;1.54;74.03;100406.38;10382501;28;96685;-85
2023/04/27 04:02:31;;;;;;;17.27;6.60;;;3.30;88.40;;;1.57;74.10;100405.34;10384485;28;96648;-86
2023/04/27 04:07:35;;;;;;;19.30;5.93;;;3.20;89.60;;;1.60;74.29;100413.81;10422843;28;96768;-90
2023/04/27 04:12:38;;;;;;;14.33;5.30;;;3.30;88.90;;;1.67;74.75;100411.63;10421238;28;96760;-86
2023/04/27 04:17:41;;;;;;;13.07;4.57;;;3.30;90.00;;;1.78;74.60;100422.19;10400493;28;96492;-85
2023/04/27 04:22:44;;;;;;;6.80;2.77;;;3.40;90.00;;;2.01;74.29;100419.75;10399246;28;96620;-86
2023/04/27 04:27:47;;;;;;;5.07;2.23;;;3.60;90.60;;;2.32;73.32;100427.13;10368828;28;97136;-84
2023/04/27 04:32:51;;;;;;;3.63;2.30;;;3.90;90.40;;;2.64;71.82;100419.56;10395821;27;96626;-85
2023/04/27 04:37:53;;;;;;;3.83;2.03;;;4.20;90.20;;;2.95;70.69;100426.03;10378958;28;97320;-85
2023/04/27 04:42:56;;;;;;;5.00;1.80;;;4.40;90.00;;;3.22;69.11;100427.53;10415557;28;96939;-85
2023/04/27 04:48:00;;;;;;;7.93;4.00;;;4.70;89.30;;;3.43;68.33;100441.69;10375124;27;96875;-84
2023/04/27 04:53:03;;;;;;;6.20;2.83;;;4.90;88.80;;;3.64;67.93;100430.50;10377157;28;97235;-95
2023/04/27 04:58:07;;;;;;;4.73;2.00;;;5.10;88.30;;;3.82;67.88;100426.44;10419757;28;96450;-94
2023/04/27 05:03:10;;;;;;;5.90;2.00;;;5.30;88.00;;;4.02;67.49;100433.63;10409302;28;96395;-95
2023/04/27 05:08:13;;;;;;;11.00;5.60;;;5.50;87.80;;;4.21;67.05;100445.34;10385582;28;96571;-93
2023/04/27 05:13:17;;;;;;;12.20;3.80;;;5.70;87.30;;;4.37;66.75;100451.03;10380085;28;96794;-86
2023/04/27 05:18:20;;;;;;;11.77;5.53;;;5.80;87.10;;;4.52;66.07;100456.88;10381458;28;96601;-85
2023/04/27 05:23:23;;;;;;;13.03;5.13;;;6.00;87.00;;;4.67;65.88;100465.34;10391027;27;97899;-86
2023/04/27 05:28:25;;;;;;;9.40;3.93;;;6.10;86.80;;;4.86;65.29;100462.91;10372016;27;97175;-86
2023/04/27 05:33:28;;;;;;;6.80;3.47;;;6.30;86.20;;;5.10;65.27;100462.69;10395433;28;96542;-87
2023/04/27 05:38:33;;;;;;;8.30;4.77;;;6.60;86.50;;;5.42;65.85;100457.38;10396238;28;96833;-89
2023/04/27 05:43:39;;;;;;;22.40;5.80;;;6.80;86.80;;;5.80;66.23;100467.31;10378341;27;96781;-89
2023/04/27 05:48:42;;;;;;;14.73;5.00;;;7.20;87.10;;;6.19;64.88;100466.72;10399787;28;96795;-89
2023/04/27 05:53:45;;;;;;;14.77;4.93;;;7.60;86.90;;;6.66;64.36;100465.19;10421449;28;96609;-89
2023/04/27 05:58:48;;;;;;;9.40;4.03;;;8.00;86.50;;;7.13;63.13;100468.00;10371950;28;96738;-91
2023/04/27 06:03:51;;;;;;;11.50;4.90;;;8.50;86.00;;;7.43;60.62;100472.28;10397460;28;98240;-90
2023/04/27 06:08:54;;;;;;;16.00;3.87;;;8.80;84.30;;;7.89;60.24;100468.03;10376989;28;96630;-89
2023/04/27 06:13:57;;;;;;;12.97;4.27;;;9.30;83.90;;;8.09;56.95;100466.97;10397401;28;96958;-89
2023/04/27 06:19:00;;;;;;;8.90;3.27;;;9.60;80.80;;;8.49;57.60;100471.16;10381554;28;96822;-89
2023/04/27 06:24:03;;;;;;;6.20;3.00;;;9.90;80.90;;;8.78;55.91;100477.13;10413868;27;96566;-89
2023/04/27 06:29:07;;;;;;;8.87;3.47;;;10.20;79.70;;;8.88;55.71;100484.19;10402585;28;96536;-89
2023/04/27 06:34:10;;;;;;;13.60;4.13;;;10.40;78.80;;;8.87;55.67;100478.03;10384417;28;96655;-88
2023/04/27 06:39:13;;;;;;;4.57;2.50;;;10.40;78.00;;;8.90;56.64;100487.50;10385173;28;96486;-89
2023/04/27 06:44:16;;;;;;;6.97;2.87;;;10.40;78.30;;;8.98;55.33;100484.94;10417162;27;96798;-87
2023/04/27 06:49:19;;;;;;;5.87;2.30;;;10.50;77.90;;;9.07;55.09;100492.81;10397552;27;96803;-87
2023/04/27 06:54:23;;;;;;;6.93;2.50;;;10.60;77.10;;;9.21;55.31;100485.31;10381689;27;98066;-88
2023/04/27 06:59:26;;;;;;;6.47;2.63;;;10.60;77.00;;;9.20;54.56;100495.09;10416771;27;96756;-87
2023/04/27 07:04:29;;;;;;;4.90;2.17;;;10.70;76.60;;;9.33;54.64;100495.53;10402092;28;98044;-88
2023/04/27 07:09:32;;;;;;;7.60;2.40;;;10.80;76.00;;;9.50;52.61;100493.03;10367230;27;97000;-87
2023/04/27 07:14:36;;;;;;;4.10;1.73;;;10.90;73.90;;;9.65;52.60;100492.34;10389985;27;96940;-88
2023/04/27 07:19:38;;;;;;;3.53;2.13;;;11.10;73.50;;;10.12;49.96;100488.47;10384872;28;96693;-87
2023/04/27 07:24:41;;;;;;;4.33;2.10;;;11.30;72.90;;;10.41;49.85;100490.81;10396025;27;96623;-90
2023/04/27 07:29:46;;;;;;;9.30;2.00;;;11.60;71.90;;;10.64;49.54;100493.72;10398750;27;96700;-87
2023/04/27 07:34:49;;;;;;;4.37;1.50;;;11.90;71.00;;;10.87;44.96;100486.81;10382255;28;96647;-86
2023/04/27 07:39:58;;;;;;;8.83;1.63;;;12.20;66.30;;;11.21;44.77;100497.31;10390130;27;97203;-89
2023/04/27 07:45:01;;;;;;;3.20;1.17;;;12.60;65.50;;;11.56;40.34;100489.19;10374247;28;96542;-87
2023/04/27 07:50:06;;;;;;;5.30;1.80;;;13.00;61.50;;;11.39;36.50;100489.19;10390177;28;97546;-86
2023/04/27 07:55:09;;;;;;;1.93;0.93;;;13.00;56.00;;;11.39;36.37;100491.84;10394024;28;98621;-88
2023/04/27 08:00:13;;;;;;;2.87;1.23;;;13.00;55.70;;;11.53;36.39;100488.53;10395384;27;96971;-87
2023/04/27 08:05:16;;;;;;;4.77;1.63;;;13.00;55.30;;;11.98;37.57;100481.84;10374640;27;97489;-86
2023/04/27 08:10:21;;;;;;;2.47;1.20;;;13.30;55.90;;;12.32;36.54;100478.09;10405605;28;98577;-83
2023/04/27 08:15:23;;;;;;;5.03;1.33;;;13.70;54.30;;;12.41;35.12;100474.38;10410923;27;97270;-86
2023/04/27 08:20:26;;;;;;;4.10;1.40;;;13.90;53.10;;;12.68;34.70;100480.25;10406502;28;96783;-83
2023/04/27 08:25:30;;;;;;;2.40;1.10;;;14.20;52.50;;;12.79;35.21;100475.38;10381601;28;97717;-85
2023/04/27 08:30:33;;;;;;;2.60;1.23;;;14.30;52.60;;;12.84;33.99;100482.84;10418892;27;97772;-88
2023/04/27 08:35:37;;;;;;;4.68;1.50;;;14.40;51.20;;;12.76;34.38;100477.53;10391306;27;97387;-93
2023/04/27 08:40:43;;;;;;;3.80;1.13;;;14.30;51.30;;;12.63;33.39;100477.28;10404649;28;97590;-88
2023/04/27 08:45:52;;;;;;;1.97;0.90;;;14.20;51.30;;;12.52;34.43;100483.81;10417227;28;96617;-89
2023/04/27 08:50:58;;;;;;;4.17;0.93;;;14.10;51.40;;;12.24;34.00;100488.78;10377308;28;97321;-89
2023/04/27 08:56:03;;;;;;;5.07;1.23;;;13.80;50.60;;;12.00;33.67;100485.19;10363727;27;96850;-89
2023/04/27 09:01:07;;;;;;;3.97;0.90;;;13.50;50.80;;;11.93;34.24;100480.69;10399047;28;96652;-89
2023/04/27 09:06:10;;;;;;;2.67;1.20;;;13.40;51.00;;;12.23;34.54;100481.78;10433816;27;96575;-84
2023/04/27 09:11:32;;;;;;;1.73;0.80;;;13.40;51.20;;;12.75;32.45;100473.22;10420026;27;96537;-84
2023/04/27 09:16:35;;;;;;;2.85;1.20;;;13.90;50.00;;;13.04;32.52;100461.88;10410530;27;96551;-85
2023/04/27 09:21:38;;;;;;;2.70;1.00;;;14.30;50.10;;;13.17;32.64;100466.63;10392335;27;96619;-85
2023/04/27 09:26:48;;;;;;;3.53;0.98;;;14.40;49.40;;;13.08;31.16;100460.53;10391681;28;96709;-81
2023/04/27 09:31:51;;;;;;;2.95;0.90;;;14.30;48.20;;;13.05;30.71;100461.69;10398752;28;96801;-82
2023/04/27 09:36:54;;;;;;;7.30;0.88;;;14.30;48.00;;;13.40;31.18;100448.78;10390780;28;96555;-81
2023/04/27 09:41:57;;;;;;;1.70;0.80;;;14.60;48.20;;;13.80;30.20;100438.75;10388550;28;96624;-82
2023/04/27 09:47:01;;;;;;;2.33;0.98;;;15.20;47.40;;;14.34;29.92;100438.47;10391661;28;97043;-81
2023/04/27 09:52:04;;;;;;;1.63;1.00;;;15.70;47.30;;;14.37;29.46;100446.09;10399346;28;98182;-83
2023/04/27 09:57:31;;;;;;;3.05;1.00;;;15.80;46.00;;;14.02;30.52;100429.78;10403251;27;96916;-83
2023/04/27 10:03:20;;;;;;;3.80;1.40;;;15.40;46.70;;;13.71;31.86;100431.81;10407919;28;96502;-82
2023/04/27 10:08:25;;;;;;;4.20;1.60;;;15.00;47.20;;;13.60;31.48;100425.91;10402024;27;96596;-83
2023/04/27 10:13:31;;;;;;;1.80;0.98;;;14.90;47.10;;;13.65;30.97;100423.50;10405117;28;96554;-83
2023/04/27 10:18:34;;;;;;;3.40;1.48;;;14.90;47.40;;;14.23;31.96;100420.22;10387861;28;96748;-81
2023/04/27 10:23:50;;;;;;;3.97;1.17;;;15.30;47.90;;;14.73;30.94;100414.88;10404719;28;96529;-85
2023/04/27 10:29:07;;;;;;;3.13;0.90;;;16.00;46.90;;;14.43;29.75;100421.28;10383554;28;96537;-83
2023/04/27 10:34:16;;;;;;;3.65;1.08;;;15.80;45.30;;;14.46;30.59;100407.53;10387565;28;96778;-82
2023/04/27 10:39:36;;;;;;;1.90;0.90;;;15.70;46.00;;;14.76;28.36;100415.53;10386140;28;96819;-83
2023/04/27 10:44:56;;;;;;;4.00;1.20;;;16.00;45.20;;;14.44;28.96;100414.91;10406443;28;97155;-81
2023/04/27 10:50:00;;;;;;;2.95;1.08;;;15.70;44.60;;;14.22;29.58;100413.22;10402628;28;96718;-83
2023/04/27 10:55:19;;;;;;;4.35;1.63;;;15.50;44.90;;;14.36;29.92;100412.34;10396005;27;96644;-84
2023/04/27 11:00:30;;;;;;;3.15;1.27;;;15.50;45.40;;;14.72;29.68;100410.53;10387765;28;96515;-83
2023/04/27 11:05:35;;;;;;;2.83;1.10;;;15.90;45.40;;;14.84;28.68;100405.50;10403969;28;96516;-82
2023/04/27 11:10:41;;;;;;;2.33;1.10;;;16.10;44.60;;;14.82;29.15;100404.06;10384848;27;96730;-83
2023/04/27 11:15:48;;;;;;;1.05;0.70;;;16.10;44.40;;;14.99;29.55;100397.41;10370299;28;96585;-83
2023/04/27 11:21:17;;;;;;;5.18;1.05;;;16.30;44.90;;;14.82;29.33;100394.19;10420086;28;98484;-82
2023/04/27 11:26:23;;;;;;;2.58;1.08;;;16.20;44.70;;;14.76;29.71;100399.47;10402464;28;96719;-83
2023/04/27 11:31:37;;;;;;;1.98;0.85;;;16.20;45.00;;;14.52;30.76;100403.31;10419711;28;96516;-83
2023/04/27 11:36:40;;;;;;;4.60;1.20;;;16.00;45.60;;;14.75;31.23;100401.28;10385511;28;96460;-83
2023/04/27 11:41:45;;;;;;;3.05;1.35;;;16.10;46.20;;;15.35;30.27;100388.44;10401044;27;96840;-86
2023/04/27 11:46:48;;;;;;;8.10;3.35;;;16.60;46.40;;;15.70;29.17;100386.66;10384896;28;96826;-87
2023/04/27 11:51:51;;;;;;;7.55;4.43;;;17.00;45.20;;;15.85;29.07;100383.88;10399671;28;96591;-83
2023/04/27 11:57:04;;;;;;;6.03;2.30;;;17.20;44.40;;;15.42;29.48;100400.06;10383906;28;96472;-83
2023/04/27 12:02:08;;;;;;;4.50;1.50;;;16.90;44.50;;;14.69;30.52;100397.56;10383589;27;96808;-83
2023/04/27 12:07:12;;;;;;;4.57;1.88;;;16.30;45.60;;;15.50;29.98;100391.88;10401741;28;96389;-86
2023/04/27 12:12:20;;;;;;;4.72;1.10;;;17.00;46.10;;;16.63;28.21;100384.41;10400550;28;96539;-85
2023/04/27 12:17:23;;;;;;;4.03;1.10;;;18.30;44.10;;;17.76;27.75;100379.94;10384663;28;96555;-82
2023/04/27 12:22:26;;;;;;;2.15;1.00;;;19.50;43.90;;;18.60;24.90;100379.81;10399617;28;96642;-84
2023/04/27 12:27:29;;;;;;;2.53;1.00;;;20.60;41.80;;;18.30;25.26;100384.09;10416816;28;96716;-86
2023/04/27 12:32:32;;;;;;;4.13;1.20;;;20.00;40.30;;;17.86;26.79;100383.00;10383477;27;96615;-83
2023/04/27 12:37:36;;;;;;;3.30;1.27;;;19.40;41.60;;;17.86;26.58;100373.06;10339710;28;97092;-84
2023/04/27 12:42:39;;;;;;;4.40;1.20;;;19.40;42.00;;;17.60;25.63;100378.47;10317634;28;96610;-83
2023/04/27 12:47:43;;;;;;;3.08;1.23;;;19.30;41.30;;;17.76;25.63;100371.88;10292375;28;96489;-83
2023/04/27 12:53:04;;;;;;;3.78;0.90;;;19.40;41.20;;;17.70;25.37;100373.50;10326140;28;97341;-83
2023/04/27 12:58:07;;;;;;;3.35;1.20;;;19.30;40.70;;;17.64;26.42;100379.72;10331641;28;96654;-86
2023/04/27 13:03:10;;;;;;;2.85;1.27;;;18.90;41.40;;;17.61;25.76;100378.25;10295959;28;96605;-83
2023/04/27 13:08:14;;;;;;;2.28;1.02;;;18.70;41.10;;;17.94;25.52;100369.34;10318969;28;96463;-84
2023/04/27 13:13:17;;;;;;;6.43;5.35;;;18.90;41.20;;;18.27;25.14;100358.44;10289150;28;96870;-85
2023/04/27 13:18:20;;;;;;;3.78;1.50;;;19.40;40.80;;;18.32;23.69;100371.25;10278487;28;96478;-82
2023/04/27 13:23:23;;;;;;;1.92;0.90;;;19.90;38.90;;;18.10;23.20;100362.66;10297478;28;96487;-81
2023/04/27 13:28:26;;;;;;;3.75;1.05;;;20.00;37.20;;;17.98;24.98;100361.66;10320141;28;97162;-83
2023/04/27 13:33:29;;;;;;;2.50;1.13;;;20.40;38.60;;;18.63;25.15;100373.16;10314068;28;98411;-82
2023/04/27 13:38:32;;;;;;;6.70;1.20;;;21.30;38.90;;;19.48;24.25;100357.38;10312677;28;97481;-84
2023/04/27 13:43:35;;;;;;;2.70;0.98;;;22.30;39.00;;;20.01;22.43;100354.97;10347886;28;97086;-83
2023/04/27 13:48:38;;;;;;;79.78;51.58;;;23.00;37.40;;;20.30;22.82;100366.03;10340535;28;96470;-83
2023/04/27 13:53:41;;;;;;;5.20;2.58;;;23.20;36.80;;;20.60;21.87;100357.16;10338923;28;96598;-86
2023/04/27 13:58:45;;;;;;;2.38;1.05;;;23.20;36.20;;;20.67;21.38;100357.88;10332179;28;96554;-84
2023/04/27 14:03:48;;;;;;;1.77;0.80;;;23.20;35.40;;;20.73;20.82;100357.78;10330598;28;96538;-85
2023/04/27 14:08:51;;;;;;;2.33;0.73;;;23.20;34.90;;;20.71;21.14;100356.38;10328856;28;96634;-85
2023/04/27 14:13:57;;;;;;;1.38;0.60;;;23.00;35.50;;;20.65;20.90;100362.69;10327525;28;96802;-84
2023/04/27 14:19:00;;;;;;;3.15;1.10;;;23.00;35.20;;;20.01;21.14;100365.75;10330390;28;96587;-85
2023/04/27 14:24:03;;;;;;;2.92;1.17;;;22.20;34.80;;;19.83;22.57;100375.72;10304214;28;96964;-85
2023/04/27 14:29:06;;;;;;;2.92;0.93;;;21.90;36.00;;;20.00;22.68;100380.31;10326313;28;96694;-85
2023/04/27 14:34:09;;;;;;;3.42;1.10;;;22.20;36.10;;;19.25;22.60;100376.88;10329207;28;96734;-84
2023/04/27 14:39:12;;;;;;;5.28;1.30;;;21.40;35.40;;;18.97;23.15;100380.84;10315975;28;96623;-83
2023/04/27 14:44:16;;;;;;;4.05;1.15;;;20.90;36.20;;;19.14;22.82;100374.91;10351985;28;96573;-83
2023/04/27 14:49:19;;;;;;;2.88;1.10;;;21.10;36.40;;;18.94;23.42;100386.63;10352323;28;96594;-83
2023/04/27 14:54:22;;;;;;;2.15;1.05;;;21.00;36.80;;;18.76;23.42;100383.88;10333981;28;96574;-83
2023/04/27 14:59:25;;;;;;;2.80;1.30;;;20.80;36.70;;;18.20;24.12;100379.16;10368915;28;97965;-83
2023/04/27 15:04:28;;;;;;;4.78;1.38;;;20.20;37.00;;;18.12;24.35;100382.09;10337298;28;96562;-83
2023/04/27 15:09:33;;;;;;;2.47;1.10;;;20.00;37.40;;;18.48;24.27;100386.91;10319886;28;96496;-84
2023/04/27 15:14:36;;;;;;;2.97;1.00;;;20.30;37.40;;;18.57;22.96;100382.91;10336705;28;96461;-83
2023/04/27 15:19:39;;;;;;;3.63;1.38;;;20.60;36.20;;;18.34;23.88;100386.13;10317294;28;97802;-83
2023/04/27 15:24:42;;;;;;;2.22;1.33;;;20.20;36.80;;;18.29;24.00;100388.66;10335145;28;96640;-84
2023/04/27 15:29:45;;;;;;;3.35;1.27;;;20.20;37.10;;;18.39;23.84;100380.94;10336302;28;96491;-84
2023/04/27 15:34:48;;;;;;;3.22;1.10;;;20.20;37.30;;;18.58;23.46;100381.06;10361199;28;97046;-84
2023/04/27 15:39:51;;;;;;;4.57;1.05;;;20.40;37.30;;;18.55;24.04;100386.88;10399377;28;96730;-84
2023/04/27 15:44:55;;;;;;;4.00;1.15;;;20.50;37.00;;;18.31;23.99;100386.56;10383298;28;96634;-83
2023/04/27 15:49:58;;;;;;;2.50;1.23;;;20.20;37.20;;;18.11;24.07;100386.66;10398385;28;96674;-83
2023/04/27 15:55:03;;;;;;;3.35;1.10;;;20.00;37.10;;;18.02;24.09;100382.53;10417380;27;96917;-83
2023/04/27 16:00:10;;;;;;;2.95;1.30;;;19.80;37.60;;;17.90;24.46;100379.69;10384449;28;97438;-84
2023/04/27 16:05:14;;;;;;;2.35;1.17;;;19.70;37.50;;;17.68;24.45;100391.69;10385142;28;96430;-84
2023/04/27 16:10:17;;;;;;;2.20;1.08;;;19.40;37.50;;;17.35;24.60;100397.13;10383493;28;96440;-83
2023/04/27 16:15:20;;;;;;;2.78;1.20;;;19.20;37.40;;;17.34;25.10;100393.59;10382375;28;96596;-84
2023/04/27 16:20:24;;;;;;;3.35;1.15;;;19.00;38.00;;;17.22;25.13;100395.25;10384270;28;96571;-84
2023/04/27 16:25:27;;;;;;;2.92;1.60;;;18.90;38.00;;;16.89;25.50;100402.44;10383962;28;96623;-83
2023/04/27 16:30:30;;;;;;;3.15;1.40;;;18.60;38.30;;;16.74;25.94;100405.31;10400077;28;96555;-83
2023/04/27 16:35:34;;;;;;;2.90;1.40;;;18.40;38.50;;;16.60;25.75;100409.78;10415898;28;96539;-84
2023/04/27 16:40:37;;;;;;;2.90;1.08;;;18.20;38.50;;;16.36;26.03;100415.66;10399968;28;96501;-84
2023/04/27 16:45:42;;;;;;;2.83;1.05;;;18.00;38.80;;;15.86;26.76;100418.53;10399844;28;96591;-83
2023/04/27 16:50:46;;;;;;;3.95;1.63;;;17.40;39.20;;;15.44;27.65;100419.44;10399735;28;96681;-83
2023/04/27 16:55:49;;;;;;;4.97;1.58;;;16.90;39.80;;;14.89;28.25;100421.00;10382845;28;98289;-84
2023/04/27 17:00:52;;;;;;;2.20;1.05;;;16.30;40.30;;;14.43;28.95;100426.63;10372543;28;97395;-84
2023/04/27 17:05:55;;;;;;;6.80;3.60;;;15.80;41.00;;;14.04;29.83;100422.44;10397283;28;96679;-85
2023/04/27 17:10:58;;;;;;;2.73;1.50;;;15.40;41.70;;;13.60;30.48;100436.56;10408387;27;97845;-85
2023/04/27 17:16:03;;;;;;;1.80;1.20;;;15.00;42.40;;;13.22;31.69;100442.94;10364387;28;98961;-83
2023/04/27 17:21:06;;;;;;;4.90;1.77;;;14.60;43.00;;;12.94;32.22;100443.44;10390329;27;96749;-84
2023/04/27 17:26:10;;;;;;;1.97;1.10;;;14.30;43.50;;;12.63;33.21;100442.63;10379657;28;96636;-85
2023/04/27 17:31:16;;;;;;;2.00;1.23;;;14.00;44.30;;;12.36;33.49;100451.94;10386121;28;96649;-84
2023/04/27 17:36:19;;;;;;;4.47;1.70;;;13.70;44.90;;;12.13;33.96;100451.84;10394455;28;97344;-83
2023/04/27 17:41:22;;;;;;;5.47;3.33;;;13.50;45.20;;;11.91;34.47;100453.41;10378133;28;96578;-84
2023/04/27 17:46:25;;;;;;;7.67;3.40;;;13.30;45.60;;;11.73;35.10;100465.06;10376002;28;96552;-84
2023/04/27 17:51:28;;;;;;;4.67;2.40;;;13.10;46.00;;;11.55;35.24;100464.41;10408931;28;98504;-85
2023/04/27 17:56:31;;;;;;;9.57;3.87;;;12.90;46.40;;;11.32;36.21;100464.25;10362559;28;97285;-84
2023/04/27 18:01:35;;;;;;;6.20;3.07;;;12.70;46.80;;;11.09;36.66;100476.53;10393805;28;96636;-85
2023/04/27 18:06:38;;;;;;;5.63;2.53;;;12.50;47.30;;;10.82;37.60;100486.47;10379682;27;96956;-85
2023/04/27 18:11:41;;;;;;;11.03;4.30;;;12.20;48.10;;;10.62;38.14;100482.44;10390122;27;97072;-86
2023/04/27 18:16:44;;;;;;;9.90;5.00;;;12.00;48.70;;;10.40;38.61;100489.16;10384821;28;96644;-86
2023/04/27 18:21:47;;;;;;;5.20;3.03;;;11.80;49.40;;;10.17;39.25;100494.97;10403820;28;96569;-86
2023/04/27 18:26:50;;;;;;;7.53;3.17;;;11.60;49.60;;;10.01;39.45;100500.19;10402706;28;96607;-85
2023/04/27 18:31:53;;;;;;;9.10;3.60;;;11.40;50.20;;;9.83;39.72;100507.38;10384550;28;96946;-85
2023/04/27 18:36:56;;;;;;;7.03;3.33;;;11.30;50.50;;;9.64;40.57;100511.03;10397223;28;97067;-85
2023/04/27 18:42:00;;;;;;;6.40;2.20;;;11.10;50.90;;;9.48;41.02;100521.53;10382464;27;97443;-85
2023/04/27 18:47:03;;;;;;;5.53;2.67;;;10.90;51.20;;;9.34;42.02;100530.84;10403551;28;96415;-84
2023/04/27 18:52:10;;;;;;;4.27;2.00;;;10.80;51.70;;;9.17;42.35;100536.97;10398064;27;98204;-84
2023/04/27 18:57:13;;;;;;;3.10;1.80;;;10.60;52.10;;;9.03;42.74;100533.03;10404578;28;96476;-84
2023/04/27 19:02:16;;;;;;;3.97;1.83;;;10.50;52.40;;;8.90;43.22;100541.34;10403591;28;96847;-86
2023/04/27 19:07:21;;;;;;;5.27;1.80;;;10.30;53.00;;;8.74;43.87;100536.69;10405307;28;96645;-84
2023/04/27 19:12:25;;;;;;;3.50;1.40;;;10.20;54.10;;;8.63;44.38;100541.34;10397742;27;96597;-84
2023/04/27 19:17:27;;;;;;;4.60;1.90;;;10.10;54.60;;;8.52;44.80;100553.00;10400099;28;96571;-84
2023/04/27 19:22:35;;;;;;;4.67;1.57;;;9.90;54.50;;;8.45;44.89;100551.88;10424461;27;97203;-84
2023/04/27 19:27:38;;;;;;;5.53;3.10;;;9.90;55.00;;;8.37;45.34;100551.78;10368681;28;96663;-83
2023/04/27 19:32:42;;;;;;;11.40;5.47;;;9.80;54.70;;;8.28;46.28;100551.66;10378271;28;97111;-83
2023/04/27 19:37:45;;;;;;;14.80;6.20;;;9.80;55.20;;;8.22;45.96;100564.63;10393665;28;96624;-83
2023/04/27 19:42:48;;;;;;;10.87;4.00;;;9.70;55.10;;;8.10;46.01;100558.66;10383523;28;96880;-83
2023/04/27 19:47:52;;;;;;;11.00;3.93;;;9.60;55.10;;;7.94;46.94;100563.72;10397584;27;98248;-83
2023/04/27 19:52:56;;;;;;;8.53;3.73;;;9.50;55.30;;;7.83;48.03;100562.03;10399830;28;96776;-84
2023/04/27 19:57:59;;;;;;;10.10;3.67;;;9.40;55.90;;;7.67;49.36;100562.59;10414409;27;97493;-85
2023/04/27 20:03:02;;;;;;;7.47;4.43;;;9.20;56.40;;;7.51;50.10;100567.63;10382100;27;97288;-85
2023/04/27 20:08:07;;;;;;;9.90;5.37;;;9.10;57.70;;;7.32;50.87;100557.91;10398731;28;96565;-84
2023/04/27 20:13:10;;;;;;;10.73;6.33;;;8.90;58.30;;;7.18;51.55;100566.22;10383657;28;96792;-84
2023/04/27 20:18:13;;;;;;;10.03;5.27;;;8.80;58.50;;;7.05;51.94;100563.81;10383780;28;96831;-84
2023/04/27 20:23:16;;;;;;;13.20;6.73;;;8.70;58.80;;;6.90;52.86;100573.13;10396228;28;96742;-84
2023/04/27 20:28:19;;;;;;;14.27;7.37;;;8.60;59.50;;;6.81;53.20;100573.91;10378496;28;96825;-83
2023/04/27 20:33:22;;;;;;;14.10;5.37;;;8.40;60.90;;;6.65;53.75;100584.97;10396412;28;96809;-83
2023/04/27 20:38:25;;;;;;;8.03;4.20;;;8.30;61.40;;;6.46;54.10;100585.72;10362964;28;96841;-84
2023/04/27 20:43:28;;;;;;;8.43;4.10;;;8.10;62.80;;;6.25;54.54;100587.59;10343551;28;96508;-85
2023/04/27 20:48:31;;;;;;;9.33;3.90;;;7.80;63.00;;;6.09;54.70;100582.75;10343414;28;97169;-85
2023/04/27 20:53:34;;;;;;;9.70;4.37;;;7.70;62.70;;;6.02;55.07;100593.00;10351772;28;96801;-85
2023/04/27 20:58:37;;;;;;;5.13;2.77;;;7.60;62.80;;;5.95;55.44;100594.47;10332818;28;98583;-85
2023/04/27 21:03:40;;;;;;;7.53;3.70;;;7.50;63.30;;;5.80;56.06;100595.72;10361217;28;97054;-83